sensor_id;sensor_type;location;lat;lon;timestamp;temperature;humidity
16178;DHT22;8195;51.220;9.746;2023-02-02T00:01:57;3.60;97.20
16178;DHT22;8195;51.220;9.746;2023-02-02T00:11:59;3.70;97.20
16178;DHT22;8195;51.220;9.746;2023-02-02T00:22:00;3.60;97.20
16178;DHT22;8195;51.220;9.746;2023-02-02T00:32:01;3.60;97.20
16178;DHT22;8195;51.220;9.746;2023-02-02T00:42:01;3.60;97.20
16178;DHT22;8195;51.220;9.746;2023-02-02T00:52:02;3.60;97.20
16178;DHT22;8195;51.220;9.746;2023-02-02T01:02:03;3.60;97.20
16178;DHT22;8195;51.220;9.746;2023-02-02T01:12:03;3.70;97.20
16178;DHT22;8195;51.220;9.746;2023-02-02T01:22:04;3.70;97.20
16178;DHT22;8195;51.220;9.746;2023-02-02T01:32:05;3.60;97.20
16178;DHT22;8195;51.220;9.746;2023-02-02T01:42:13;3.60;97.20
16178;DHT22;8195;51.220;9.746;2023-02-02T01:52:16;3.60;97.20
16178;DHT22;8195;51.220;9.746;2023-02-02T02:02:18;3.70;97.20
16178;DHT22;8195;51.220;9.746;2023-02-02T02:12:18;3.60;97.20
16178;DHT22;8195;51.220;9.746;2023-02-02T02:22:19;3.60;97.20
16178;DHT22;8195;51.220;9.746;2023-02-02T02:42:27;3.60;97.20
16178;DHT22;8195;51.220;9.746;2023-02-02T02:52:28;3.60;97.20
16178;DHT22;8195;51.220;9.746;2023-02-02T03:03:12;3.50;97.20
16178;DHT22;8195;51.220;9.746;2023-02-02T03:13:06;3.60;97.20
16178;DHT22;8195;51.220;9.746;2023-02-02T03:23:07;3.60;97.20
16178;DHT22;8195;51.220;9.746;2023-02-02T03:33:09;3.50;97.20
16178;DHT22;8195;51.220;9.746;2023-02-02T03:43:10;3.60;97.20
16178;DHT22;8195;51.220;9.746;2023-02-02T03:53:10;3.60;97.20
16178;DHT22;8195;51.220;9.746;2023-02-02T04:03:11;3.60;97.20
16178;DHT22;8195;51.220;9.746;2023-02-02T04:13:11;3.70;97.20
16178;DHT22;8195;51.220;9.746;2023-02-02T04:23:12;3.70;97.20
16178;DHT22;8195;51.220;9.746;2023-02-02T04:33:12;3.70;97.20
16178;DHT22;8195;51.220;9.746;2023-02-02T04:43:13;3.70;97.20
16178;DHT22;8195;51.220;9.746;2023-02-02T04:53:14;3.80;97.20
16178;DHT22;8195;51.220;9.746;2023-02-02T05:03:15;3.80;97.20
16178;DHT22;8195;51.220;9.746;2023-02-02T05:13:15;3.80;97.20
16178;DHT22;8195;51.220;9.746;2023-02-02T05:23:16;3.80;97.20
16178;DHT22;8195;51.220;9.746;2023-02-02T05:33:16;3.80;97.20
16178;DHT22;8195;51.220;9.746;2023-02-02T05:43:17;3.80;97.20
16178;DHT22;8195;51.220;9.746;2023-02-02T05:53:18;3.70;97.20
16178;DHT22;8195;51.220;9.746;2023-02-02T06:03:18;3.80;97.20
16178;DHT22;8195;51.220;9.746;2023-02-02T06:13:19;3.80;97.20
16178;DHT22;8195;51.220;9.746;2023-02-02T06:23:20;3.80;97.20
16178;DHT22;8195;51.220;9.746;2023-02-02T06:33:20;3.70;97.20
16178;DHT22;8195;51.220;9.746;2023-02-02T06:43:21;3.60;97.20
16178;DHT22;8195;51.220;9.746;2023-02-02T06:53:21;3.40;97.20
16178;DHT22;8195;51.220;9.746;2023-02-02T07:03:22;3.30;97.20
16178;DHT22;8195;51.220;9.746;2023-02-02T07:13:22;3.30;97.20
16178;DHT22;8195;51.220;9.746;2023-02-02T07:23:23;3.10;97.20
16178;DHT22;8195;51.220;9.746;2023-02-02T07:33:24;3.00;97.20
16178;DHT22;8195;51.220;9.746;2023-02-02T07:43:24;3.00;97.20
16178;DHT22;8195;51.220;9.746;2023-02-02T07:53:25;2.90;97.20
16178;DHT22;8195;51.220;9.746;2023-02-02T08:03:26;2.90;97.20
16178;DHT22;8195;51.220;9.746;2023-02-02T08:13:27;2.80;97.20
16178;DHT22;8195;51.220;9.746;2023-02-02T08:23:27;2.90;97.20
16178;DHT22;8195;51.220;9.746;2023-02-02T08:33:28;2.80;97.20
16178;DHT22;8195;51.220;9.746;2023-02-02T08:43:28;2.80;97.20
16178;DHT22;8195;51.220;9.746;2023-02-02T08:53:29;2.70;97.20
16178;DHT22;8195;51.220;9.746;2023-02-02T09:03:30;2.80;97.20
16178;DHT22;8195;51.220;9.746;2023-02-02T09:13:31;2.80;97.20
16178;DHT22;8195;51.220;9.746;2023-02-02T09:23:33;2.90;97.20
16178;DHT22;8195;51.220;9.746;2023-02-02T09:33:34;2.90;97.20
16178;DHT22;8195;51.220;9.746;2023-02-02T09:53:55;2.90;97.20
16178;DHT22;8195;51.220;9.746;2023-02-02T10:04:20;3.00;97.20
16178;DHT22;8195;51.220;9.746;2023-02-02T10:14:39;3.00;97.20
16178;DHT22;8195;51.220;9.746;2023-02-02T10:24:40;3.00;97.20
16178;DHT22;8195;51.220;9.746;2023-02-02T10:34:43;3.00;97.20
16178;DHT22;8195;51.220;9.746;2023-02-02T11:05:17;3.10;97.20
16178;DHT22;8195;51.220;9.746;2023-02-02T11:15:25;3.10;97.20
16178;DHT22;8195;51.220;9.746;2023-02-02T11:35:36;3.10;97.20
16178;DHT22;8195;51.220;9.746;2023-02-02T11:55:47;3.10;97.20
16178;DHT22;8195;51.220;9.746;2023-02-02T12:05:48;3.20;97.20
16178;DHT22;8195;51.220;9.746;2023-02-02T12:26:29;3.30;97.20
16178;DHT22;8195;51.220;9.746;2023-02-02T13:07:40;3.40;97.20
16178;DHT22;8195;51.220;9.746;2023-02-02T13:17:58;3.40;97.20
16178;DHT22;8195;51.220;9.746;2023-02-02T13:28:01;3.40;97.20
16178;DHT22;8195;51.220;9.746;2023-02-02T13:38:21;3.40;97.20
16178;DHT22;8195;51.220;9.746;2023-02-02T13:48:45;3.50;97.20
16178;DHT22;8195;51.220;9.746;2023-02-02T14:09:16;3.50;97.20
16178;DHT22;8195;51.220;9.746;2023-02-02T14:50:12;3.30;97.20
16178;DHT22;8195;51.220;9.746;2023-02-02T15:00:31;3.30;97.20
16178;DHT22;8195;51.220;9.746;2023-02-02T15:20:53;3.10;97.20
16178;DHT22;8195;51.220;9.746;2023-02-02T15:51:24;2.90;97.20
16178;DHT22;8195;51.220;9.746;2023-02-02T16:01:28;2.80;97.20
16178;DHT22;8195;51.220;9.746;2023-02-02T16:11:31;2.80;97.20
16178;DHT22;8195;51.220;9.746;2023-02-02T16:21:33;2.70;97.20
16178;DHT22;8195;51.220;9.746;2023-02-02T16:31:35;2.70;97.20
16178;DHT22;8195;51.220;9.746;2023-02-02T16:41:36;2.60;97.20
16178;DHT22;8195;51.220;9.746;2023-02-02T16:51:36;2.70;97.20
16178;DHT22;8195;51.220;9.746;2023-02-02T17:01:41;2.60;97.20
16178;DHT22;8195;51.220;9.746;2023-02-02T17:11:58;2.60;97.20
16178;DHT22;8195;51.220;9.746;2023-02-02T17:22:01;2.50;97.20
16178;DHT22;8195;51.220;9.746;2023-02-02T17:32:02;2.40;97.20
16178;DHT22;8195;51.220;9.746;2023-02-02T17:42:03;2.50;97.20
16178;DHT22;8195;51.220;9.746;2023-02-02T17:52:04;2.40;97.20
16178;DHT22;8195;51.220;9.746;2023-02-02T18:02:05;2.40;97.20
16178;DHT22;8195;51.220;9.746;2023-02-02T18:12:05;2.50;97.20
16178;DHT22;8195;51.220;9.746;2023-02-02T18:22:06;2.50;97.20
16178;DHT22;8195;51.220;9.746;2023-02-02T18:32:07;2.50;97.20
16178;DHT22;8195;51.220;9.746;2023-02-02T18:42:08;2.40;97.20
16178;DHT22;8195;51.220;9.746;2023-02-02T18:52:08;2.50;97.20
16178;DHT22;8195;51.220;9.746;2023-02-02T19:02:17;2.50;97.20
16178;DHT22;8195;51.220;9.746;2023-02-02T19:12:18;2.60;97.20
16178;DHT22;8195;51.220;9.746;2023-02-02T19:22:19;2.60;97.20
16178;DHT22;8195;51.220;9.746;2023-02-02T19:32:25;2.70;97.20
16178;DHT22;8195;51.220;9.746;2023-02-02T19:42:28;2.70;97.20
16178;DHT22;8195;51.220;9.746;2023-02-02T19:52:28;2.70;97.20
16178;DHT22;8195;51.220;9.746;2023-02-02T20:02:36;2.80;97.20
16178;DHT22;8195;51.220;9.746;2023-02-02T20:12:37;2.90;97.20
16178;DHT22;8195;51.220;9.746;2023-02-02T20:32:53;2.90;97.20
16178;DHT22;8195;51.220;9.746;2023-02-02T20:42:54;2.90;97.20
16178;DHT22;8195;51.220;9.746;2023-02-02T20:52:55;2.90;97.20
16178;DHT22;8195;51.220;9.746;2023-02-02T21:02:56;3.00;97.20
16178;DHT22;8195;51.220;9.746;2023-02-02T21:12:56;3.10;97.20
16178;DHT22;8195;51.220;9.746;2023-02-02T22:58:38;4.00;97.20
16178;DHT22;8195;51.220;9.746;2023-02-02T23:08:39;4.00;97.20
16178;DHT22;8195;51.220;9.746;2023-02-02T23:18:39;4.00;97.20
16178;DHT22;8195;51.220;9.746;2023-02-02T23:28:40;4.10;97.20
16178;DHT22;8195;51.220;9.746;2023-02-02T23:38:40;4.20;97.20
16178;DHT22;8195;51.220;9.746;2023-02-02T23:48:41;4.20;97.20
16178;DHT22;8195;51.220;9.746;2023-02-02T23:58:42;4.30;97.20
